sensor_id;sensor_type;location;lat;lon;timestamp;pressure;altitude;pressure_sealevel;temperature;humidity
16821;BME280;8527;49.740;6.604;2023-05-22T00:02:33;99450.03;;;17.65;87.18
16821;BME280;8527;49.740;6.604;2023-05-22T00:07:40;99454.09;;;17.68;87.75
16821;BME280;8527;49.740;6.604;2023-05-22T00:12:43;99453.75;;;17.64;88.01
16821;BME280;8527;49.740;6.604;2023-05-22T00:17:41;99453.50;;;17.66;86.49
16821;BME280;8527;49.740;6.604;2023-05-22T00:22:42;99451.88;;;17.65;87.61
16821;BME280;8527;49.740;6.604;2023-05-22T00:27:43;99456.31;;;17.52;86.81
16821;BME280;8527;49.740;6.604;2023-05-22T00:32:42;99450.38;;;17.50;87.92
16821;BME280;8527;49.740;6.604;2023-05-22T00:37:43;99455.47;;;17.33;87.82
16821;BME280;8527;49.740;6.604;2023-05-22T00:42:42;99454.88;;;17.31;86.84
16821;BME280;8527;49.740;6.604;2023-05-22T00:47:41;99454.78;;;17.19;87.60
16821;BME280;8527;49.740;6.604;2023-05-22T00:52:44;99457.19;;;17.02;87.46
16821;BME280;8527;49.740;6.604;2023-05-22T00:57:46;99453.25;;;17.05;88.09
16821;BME280;8527;49.740;6.604;2023-05-22T01:02:46;99448.78;;;16.92;87.49
16821;BME280;8527;49.740;6.604;2023-05-22T01:07:48;99450.69;;;16.84;89.19
16821;BME280;8527;49.740;6.604;2023-05-22T01:12:53;99443.75;;;16.77;89.91
16821;BME280;8527;49.740;6.604;2023-05-22T01:18:01;99443.34;;;16.73;89.14
16821;BME280;8527;49.740;6.604;2023-05-22T01:23:42;99442.09;;;16.76;88.62
16821;BME280;8527;49.740;6.604;2023-05-22T01:29:07;99437.03;;;16.60;89.04
16821;BME280;8527;49.740;6.604;2023-05-22T01:34:12;99446.91;;;16.67;89.46
16821;BME280;8527;49.740;6.604;2023-05-22T01:39:11;99440.38;;;16.56;89.11
16821;BME280;8527;49.740;6.604;2023-05-22T01:44:10;99440.41;;;16.49;89.41
16821;BME280;8527;49.740;6.604;2023-05-22T01:49:15;99440.69;;;16.41;89.98
16821;BME280;8527;49.740;6.604;2023-05-22T01:54:25;99434.28;;;16.42;89.26
16821;BME280;8527;49.740;6.604;2023-05-22T01:59:33;99437.59;;;16.37;89.38
16821;BME280;8527;49.740;6.604;2023-05-22T02:04:38;99441.56;;;16.28;89.06
16821;BME280;8527;49.740;6.604;2023-05-22T02:09:37;99438.28;;;16.26;89.43
16821;BME280;8527;49.740;6.604;2023-05-22T02:14:40;99442.41;;;16.22;89.62
16821;BME280;8527;49.740;6.604;2023-05-22T02:19:42;99447.56;;;16.16;89.96
16821;BME280;8527;49.740;6.604;2023-05-22T02:24:50;99440.22;;;16.12;92.12
16821;BME280;8527;49.740;6.604;2023-05-22T02:29:49;99441.66;;;16.08;91.05
16821;BME280;8527;49.740;6.604;2023-05-22T02:34:50;99449.03;;;16.12;90.80
16821;BME280;8527;49.740;6.604;2023-05-22T02:39:49;99443.28;;;16.09;90.15
16821;BME280;8527;49.740;6.604;2023-05-22T02:44:51;99445.56;;;16.05;89.15
16821;BME280;8527;49.740;6.604;2023-05-22T02:49:52;99438.41;;;15.99;89.30
16821;BME280;8527;49.740;6.604;2023-05-22T02:54:52;99444.81;;;15.91;89.82
16821;BME280;8527;49.740;6.604;2023-05-22T02:59:50;99437.38;;;15.86;89.61
16821;BME280;8527;49.740;6.604;2023-05-22T03:04:48;99444.59;;;15.79;88.33
16821;BME280;8527;49.740;6.604;2023-05-22T03:09:50;99445.03;;;15.76;90.06
16821;BME280;8527;49.740;6.604;2023-05-22T03:14:51;99439.50;;;15.71;89.54
16821;BME280;8527;49.740;6.604;2023-05-22T03:19:50;99442.81;;;15.59;91.50
16821;BME280;8527;49.740;6.604;2023-05-22T03:24:53;99438.50;;;15.52;91.73
16821;BME280;8527;49.740;6.604;2023-05-22T03:29:51;99435.81;;;15.58;91.43
16821;BME280;8527;49.740;6.604;2023-05-22T03:34:50;99433.56;;;15.62;92.28
16821;BME280;8527;49.740;6.604;2023-05-22T03:39:53;99437.47;;;15.59;92.85
16821;BME280;8527;49.740;6.604;2023-05-22T03:44:51;99434.78;;;15.66;92.36
16821;BME280;8527;49.740;6.604;2023-05-22T03:49:50;99437.25;;;15.54;90.32
16821;BME280;8527;49.740;6.604;2023-05-22T03:54:48;99443.25;;;15.50;91.84
16821;BME280;8527;49.740;6.604;2023-05-22T03:59:50;99431.13;;;15.47;92.09
16821;BME280;8527;49.740;6.604;2023-05-22T04:04:48;99433.19;;;15.38;91.88
16821;BME280;8527;49.740;6.604;2023-05-22T04:09:47;99437.91;;;15.29;92.98
16821;BME280;8527;49.740;6.604;2023-05-22T04:14:45;99438.53;;;15.38;93.16
16821;BME280;8527;49.740;6.604;2023-05-22T04:19:47;99435.00;;;15.44;93.00
16821;BME280;8527;49.740;6.604;2023-05-22T04:24:45;99441.19;;;15.52;93.29
16821;BME280;8527;49.740;6.604;2023-05-22T04:29:44;99452.50;;;15.47;94.21
16821;BME280;8527;49.740;6.604;2023-05-22T04:34:48;99442.59;;;15.54;93.75
16821;BME280;8527;49.740;6.604;2023-05-22T04:39:47;99446.06;;;15.68;94.90
16821;BME280;8527;49.740;6.604;2023-05-22T04:44:47;99459.03;;;15.71;93.08
16821;BME280;8527;49.740;6.604;2023-05-22T04:49:52;99456.56;;;15.77;94.50
16821;BME280;8527;49.740;6.604;2023-05-22T04:54:51;99454.47;;;15.85;94.73
16821;BME280;8527;49.740;6.604;2023-05-22T04:59:50;99461.66;;;15.85;93.42
16821;BME280;8527;49.740;6.604;2023-05-22T05:04:51;99467.03;;;15.92;93.60
16821;BME280;8527;49.740;6.604;2023-05-22T05:09:53;99473.38;;;15.97;94.13
16821;BME280;8527;49.740;6.604;2023-05-22T05:14:52;99474.34;;;16.16;94.05
16821;BME280;8527;49.740;6.604;2023-05-22T05:19:51;99476.56;;;16.33;92.85
16821;BME280;8527;49.740;6.604;2023-05-22T05:24:51;99469.50;;;16.45;92.93
16821;BME280;8527;49.740;6.604;2023-05-22T05:29:52;99476.41;;;16.60;93.00
16821;BME280;8527;49.740;6.604;2023-05-22T05:34:51;99480.25;;;16.71;92.77
16821;BME280;8527;49.740;6.604;2023-05-22T05:39:50;99473.66;;;16.73;92.96
16821;BME280;8527;49.740;6.604;2023-05-22T05:44:54;99478.25;;;16.92;92.51
16821;BME280;8527;49.740;6.604;2023-05-22T05:49:53;99484.94;;;17.14;90.07
16821;BME280;8527;49.740;6.604;2023-05-22T05:54:58;99480.22;;;17.35;89.61
16821;BME280;8527;49.740;6.604;2023-05-22T06:00:04;99484.66;;;17.67;89.29
16821;BME280;8527;49.740;6.604;2023-05-22T06:05:06;99484.06;;;18.02;88.25
16821;BME280;8527;49.740;6.604;2023-05-22T06:10:06;99493.59;;;18.54;87.84
16821;BME280;8527;49.740;6.604;2023-05-22T06:15:11;99487.19;;;18.97;84.65
16821;BME280;8527;49.740;6.604;2023-05-22T06:20:16;99494.13;;;19.17;84.00
16821;BME280;8527;49.740;6.604;2023-05-22T06:25:14;99497.28;;;19.26;81.37
16821;BME280;8527;49.740;6.604;2023-05-22T06:30:36;99491.59;;;19.58;79.63
16821;BME280;8527;49.740;6.604;2023-05-22T06:35:39;99491.72;;;20.28;78.48
16821;BME280;8527;49.740;6.604;2023-05-22T06:40:40;99490.88;;;20.40;75.94
16821;BME280;8527;49.740;6.604;2023-05-22T06:45:42;99497.53;;;20.37;75.69
16821;BME280;8527;49.740;6.604;2023-05-22T06:50:40;99498.66;;;20.24;76.83
16821;BME280;8527;49.740;6.604;2023-05-22T06:55:39;99504.81;;;21.12;73.28
16821;BME280;8527;49.740;6.604;2023-05-22T07:00:40;99501.78;;;21.99;72.65
16821;BME280;8527;49.740;6.604;2023-05-22T07:05:44;99496.69;;;21.80;72.73
16821;BME280;8527;49.740;6.604;2023-05-22T07:10:43;99499.56;;;22.62;70.65
16821;BME280;8527;49.740;6.604;2023-05-22T07:15:42;99500.72;;;22.99;67.14
16821;BME280;8527;49.740;6.604;2023-05-22T07:20:48;99499.44;;;23.07;66.75
16821;BME280;8527;49.740;6.604;2023-05-22T07:25:49;99500.97;;;23.73;67.71
16821;BME280;8527;49.740;6.604;2023-05-22T07:30:50;99502.88;;;24.21;64.90
16821;BME280;8527;49.740;6.604;2023-05-22T07:35:51;99501.81;;;24.27;62.97
16821;BME280;8527;49.740;6.604;2023-05-22T07:40:50;99503.44;;;24.28;64.17
16821;BME280;8527;49.740;6.604;2023-05-22T07:45:51;99500.03;;;24.95;63.75
16821;BME280;8527;49.740;6.604;2023-05-22T07:50:53;99501.69;;;25.27;62.75
16821;BME280;8527;49.740;6.604;2023-05-22T07:55:52;99507.63;;;25.45;61.46
16821;BME280;8527;49.740;6.604;2023-05-22T08:00:51;99506.19;;;25.94;59.36
16821;BME280;8527;49.740;6.604;2023-05-22T08:05:54;99494.56;;;25.73;58.76
16821;BME280;8527;49.740;6.604;2023-05-22T08:10:53;99502.41;;;25.85;61.44
16821;BME280;8527;49.740;6.604;2023-05-22T08:15:51;99500.31;;;25.66;59.83
16821;BME280;8527;49.740;6.604;2023-05-22T08:20:50;99500.41;;;26.11;59.44
16821;BME280;8527;49.740;6.604;2023-05-22T08:25:54;99490.75;;;24.70;61.52
16821;BME280;8527;49.740;6.604;2023-05-22T08:30:53;99493.00;;;25.36;62.00
16821;BME280;8527;49.740;6.604;2023-05-22T08:35:51;99492.41;;;26.81;59.02
16821;BME280;8527;49.740;6.604;2023-05-22T08:40:53;99500.34;;;27.71;56.50
16821;BME280;8527;49.740;6.604;2023-05-22T08:45:55;99489.69;;;27.75;56.30
16821;BME280;8527;49.740;6.604;2023-05-22T08:50:57;99490.88;;;28.12;54.80
16821;BME280;8527;49.740;6.604;2023-05-22T08:55:58;99491.13;;;27.67;56.33
16821;BME280;8527;49.740;6.604;2023-05-22T09:00:57;99483.47;;;28.56;53.30
16821;BME280;8527;49.740;6.604;2023-05-22T09:05:58;99483.00;;;28.87;53.82
16821;BME280;8527;49.740;6.604;2023-05-22T09:11:02;99482.38;;;29.57;53.92
16821;BME280;8527;49.740;6.604;2023-05-22T09:16:07;99478.94;;;29.18;52.08
16821;BME280;8527;49.740;6.604;2023-05-22T09:21:13;99480.66;;;29.75;52.77
16821;BME280;8527;49.740;6.604;2023-05-22T09:26:19;99474.38;;;30.16;52.02
16821;BME280;8527;49.740;6.604;2023-05-22T09:31:18;99474.56;;;30.20;51.22
16821;BME280;8527;49.740;6.604;2023-05-22T09:36:16;99476.88;;;30.64;51.83
16821;BME280;8527;49.740;6.604;2023-05-22T09:41:25;99471.38;;;30.41;51.57
16821;BME280;8527;49.740;6.604;2023-05-22T09:46:24;99481.81;;;30.39;50.44
16821;BME280;8527;49.740;6.604;2023-05-22T09:51:26;99477.69;;;30.64;49.98
16821;BME280;8527;49.740;6.604;2023-05-22T09:56:37;99480.50;;;30.59;51.13
16821;BME280;8527;49.740;6.604;2023-05-22T10:01:42;99478.59;;;30.73;50.30
16821;BME280;8527;49.740;6.604;2023-05-22T10:06:44;99478.06;;;30.35;50.58
16821;BME280;8527;49.740;6.604;2023-05-22T10:11:53;99471.69;;;30.25;51.02
16821;BME280;8527;49.740;6.604;2023-05-22T10:16:53;99467.50;;;29.77;50.39
16821;BME280;8527;49.740;6.604;2023-05-22T10:21:53;99460.28;;;28.73;51.04
16821;BME280;8527;49.740;6.604;2023-05-22T10:26:58;99458.66;;;28.14;51.50
16821;BME280;8527;49.740;6.604;2023-05-22T10:32:02;99459.16;;;28.93;50.41
16821;BME280;8527;49.740;6.604;2023-05-22T10:37:13;99466.59;;;29.54;48.72
16821;BME280;8527;49.740;6.604;2023-05-22T10:42:20;99465.56;;;30.06;48.02
16821;BME280;8527;49.740;6.604;2023-05-22T10:47:19;99461.28;;;30.50;47.09
16821;BME280;8527;49.740;6.604;2023-05-22T10:52:21;99457.78;;;30.36;47.06
16821;BME280;8527;49.740;6.604;2023-05-22T10:57:23;99443.78;;;27.63;50.42
16821;BME280;8527;49.740;6.604;2023-05-22T11:02:25;99441.69;;;26.95;55.62
16821;BME280;8527;49.740;6.604;2023-05-22T11:07:25;99436.72;;;27.32;54.68
16821;BME280;8527;49.740;6.604;2023-05-22T11:12:29;99433.59;;;29.50;51.50
16821;BME280;8527;49.740;6.604;2023-05-22T11:17:42;99433.22;;;30.22;49.61
16821;BME280;8527;49.740;6.604;2023-05-22T11:22:55;99421.22;;;30.77;48.23
16821;BME280;8527;49.740;6.604;2023-05-22T11:27:58;99425.88;;;30.68;47.99
16821;BME280;8527;49.740;6.604;2023-05-22T11:33:00;99404.25;;;30.66;47.32
16821;BME280;8527;49.740;6.604;2023-05-22T11:38:06;99413.53;;;30.79;47.28
16821;BME280;8527;49.740;6.604;2023-05-22T11:43:06;99401.63;;;30.84;48.83
16821;BME280;8527;49.740;6.604;2023-05-22T11:48:07;99387.72;;;31.43;45.73
16821;BME280;8527;49.740;6.604;2023-05-22T11:53:14;99389.66;;;31.43;46.29
16821;BME280;8527;49.740;6.604;2023-05-22T11:58:23;99377.47;;;30.86;45.17
16821;BME280;8527;49.740;6.604;2023-05-22T12:03:27;99368.53;;;30.49;48.37
16821;BME280;8527;49.740;6.604;2023-05-22T12:08:26;99377.78;;;30.62;46.70
16821;BME280;8527;49.740;6.604;2023-05-22T12:13:31;99385.25;;;30.47;46.88
16821;BME280;8527;49.740;6.604;2023-05-22T12:18:36;99389.41;;;30.44;46.64
16821;BME280;8527;49.740;6.604;2023-05-22T12:23:49;99388.56;;;30.12;48.18
16821;BME280;8527;49.740;6.604;2023-05-22T12:28:56;99397.44;;;30.18;48.48
16821;BME280;8527;49.740;6.604;2023-05-22T12:33:57;99375.63;;;30.27;49.00
16821;BME280;8527;49.740;6.604;2023-05-22T12:38:57;99379.28;;;30.45;47.61
16821;BME280;8527;49.740;6.604;2023-05-22T12:43:58;99380.09;;;30.23;46.37
16821;BME280;8527;49.740;6.604;2023-05-22T12:48:56;99389.03;;;30.14;48.38
16821;BME280;8527;49.740;6.604;2023-05-22T12:53:54;99380.72;;;30.88;45.90
16821;BME280;8527;49.740;6.604;2023-05-22T12:58:53;99373.69;;;30.73;46.36
16821;BME280;8527;49.740;6.604;2023-05-22T13:04:00;99368.53;;;30.71;45.86
16821;BME280;8527;49.740;6.604;2023-05-22T13:09:05;99375.56;;;30.64;44.82
16821;BME280;8527;49.740;6.604;2023-05-22T13:14:06;99388.81;;;30.70;47.06
16821;BME280;8527;49.740;6.604;2023-05-22T13:19:10;99417.88;;;28.61;47.36
16821;BME280;8527;49.740;6.604;2023-05-22T13:24:09;99431.00;;;27.58;50.77
16821;BME280;8527;49.740;6.604;2023-05-22T13:29:07;99441.31;;;27.37;51.58
16821;BME280;8527;49.740;6.604;2023-05-22T13:34:05;99422.66;;;26.56;52.40
16821;BME280;8527;49.740;6.604;2023-05-22T13:39:07;99426.78;;;26.88;51.77
16821;BME280;8527;49.740;6.604;2023-05-22T13:44:08;99422.66;;;26.10;51.70
16821;BME280;8527;49.740;6.604;2023-05-22T13:49:06;99423.31;;;25.81;52.80
16821;BME280;8527;49.740;6.604;2023-05-22T13:54:10;99424.59;;;26.85;51.83
16821;BME280;8527;49.740;6.604;2023-05-22T13:59:11;99441.41;;;27.51;51.64
16821;BME280;8527;49.740;6.604;2023-05-22T14:04:10;99438.56;;;26.38;51.07
16821;BME280;8527;49.740;6.604;2023-05-22T14:09:13;99435.56;;;26.39;51.75
16821;BME280;8527;49.740;6.604;2023-05-22T14:14:12;99431.28;;;26.68;49.88
16821;BME280;8527;49.740;6.604;2023-05-22T14:19:19;99433.78;;;25.38;53.03
16821;BME280;8527;49.740;6.604;2023-05-22T14:24:20;99445.78;;;26.08;52.48
16821;BME280;8527;49.740;6.604;2023-05-22T14:29:21;99451.44;;;25.25;57.84
16821;BME280;8527;49.740;6.604;2023-05-22T14:34:20;99453.09;;;25.00;58.44
16821;BME280;8527;49.740;6.604;2023-05-22T14:39:21;99453.50;;;24.14;60.73
16821;BME280;8527;49.740;6.604;2023-05-22T14:44:19;99462.81;;;24.65;59.54
16821;BME280;8527;49.740;6.604;2023-05-22T14:49:18;99464.47;;;24.76;59.75
16821;BME280;8527;49.740;6.604;2023-05-22T14:54:17;99462.28;;;25.46;58.81
16821;BME280;8527;49.740;6.604;2023-05-22T14:59:20;99450.63;;;25.19;58.14
16821;BME280;8527;49.740;6.604;2023-05-22T15:04:18;99449.28;;;24.70;59.65
16821;BME280;8527;49.740;6.604;2023-05-22T15:09:22;99441.78;;;23.98;62.16
16821;BME280;8527;49.740;6.604;2023-05-22T15:14:24;99442.66;;;24.14;62.43
16821;BME280;8527;49.740;6.604;2023-05-22T15:19:22;99444.16;;;24.89;60.29
16821;BME280;8527;49.740;6.604;2023-05-22T15:24:22;99429.41;;;24.28;61.28
16821;BME280;8527;49.740;6.604;2023-05-22T15:29:23;99432.75;;;24.71;60.87
16821;BME280;8527;49.740;6.604;2023-05-22T15:34:26;99431.91;;;24.40;59.09
16821;BME280;8527;49.740;6.604;2023-05-22T15:39:27;99425.66;;;24.55;57.97
16821;BME280;8527;49.740;6.604;2023-05-22T15:44:28;99419.69;;;24.53;59.47
16821;BME280;8527;49.740;6.604;2023-05-22T15:49:31;99423.50;;;24.47;59.29
16821;BME280;8527;49.740;6.604;2023-05-22T15:54:30;99423.22;;;24.74;59.01
16821;BME280;8527;49.740;6.604;2023-05-22T15:59:30;99431.69;;;24.88;59.73
16821;BME280;8527;49.740;6.604;2023-05-22T16:04:30;99450.41;;;24.79;58.90
16821;BME280;8527;49.740;6.604;2023-05-22T16:09:29;99447.66;;;24.69;59.98
16821;BME280;8527;49.740;6.604;2023-05-22T16:14:27;99440.63;;;24.89;60.27
16821;BME280;8527;49.740;6.604;2023-05-22T16:19:29;99437.63;;;24.80;59.14
16821;BME280;8527;49.740;6.604;2023-05-22T16:24:27;99447.06;;;24.46;60.45
16821;BME280;8527;49.740;6.604;2023-05-22T16:29:29;99440.88;;;24.61;60.70
16821;BME280;8527;49.740;6.604;2023-05-22T16:34:30;99441.44;;;24.84;61.22
16821;BME280;8527;49.740;6.604;2023-05-22T16:39:28;99447.91;;;24.67;59.90
16821;BME280;8527;49.740;6.604;2023-05-22T16:44:27;99434.06;;;24.43;59.73
16821;BME280;8527;49.740;6.604;2023-05-22T16:49:25;99438.13;;;24.40;60.41
16821;BME280;8527;49.740;6.604;2023-05-22T16:54:29;99433.81;;;24.60;60.55
16821;BME280;8527;49.740;6.604;2023-05-22T16:59:36;99436.22;;;24.51;60.82
16821;BME280;8527;49.740;6.604;2023-05-22T17:04:35;99449.22;;;24.39;61.09
16821;BME280;8527;49.740;6.604;2023-05-22T17:09:37;99448.16;;;24.40;62.17
16821;BME280;8527;49.740;6.604;2023-05-22T17:14:36;99467.75;;;24.89;61.49
16821;BME280;8527;49.740;6.604;2023-05-22T17:19:34;99457.44;;;24.85;61.62
16821;BME280;8527;49.740;6.604;2023-05-22T17:24:33;99471.56;;;24.98;62.04
16821;BME280;8527;49.740;6.604;2023-05-22T17:29:34;99471.72;;;24.24;62.06
16821;BME280;8527;49.740;6.604;2023-05-22T17:34:32;99482.84;;;24.38;63.85
16821;BME280;8527;49.740;6.604;2023-05-22T17:39:30;99481.56;;;23.39;71.89
16821;BME280;8527;49.740;6.604;2023-05-22T17:44:35;99478.88;;;23.44;78.10
16821;BME280;8527;49.740;6.604;2023-05-22T17:49:35;99479.50;;;23.18;79.07
16821;BME280;8527;49.740;6.604;2023-05-22T17:54:34;99482.19;;;23.13;81.49
16821;BME280;8527;49.740;6.604;2023-05-22T17:59:35;99471.13;;;23.20;79.52
16821;BME280;8527;49.740;6.604;2023-05-22T18:04:34;99483.75;;;23.09;79.03
16821;BME280;8527;49.740;6.604;2023-05-22T18:09:35;99486.25;;;22.83;78.36
16821;BME280;8527;49.740;6.604;2023-05-22T18:14:36;99497.72;;;22.68;77.35
16821;BME280;8527;49.740;6.604;2023-05-22T18:19:34;99507.72;;;22.68;76.16
16821;BME280;8527;49.740;6.604;2023-05-22T18:24:33;99516.81;;;22.34;75.38
16821;BME280;8527;49.740;6.604;2023-05-22T18:29:32;99519.94;;;21.81;76.34
16821;BME280;8527;49.740;6.604;2023-05-22T18:34:33;99521.16;;;21.73;74.37
16821;BME280;8527;49.740;6.604;2023-05-22T18:39:32;99526.16;;;21.47;76.06
16821;BME280;8527;49.740;6.604;2023-05-22T18:44:31;99542.03;;;21.27;75.67
16821;BME280;8527;49.740;6.604;2023-05-22T18:49:35;99546.03;;;21.41;74.71
16821;BME280;8527;49.740;6.604;2023-05-22T18:54:34;99553.41;;;20.83;76.47
16821;BME280;8527;49.740;6.604;2023-05-22T18:59:32;99556.97;;;21.00;75.50
16821;BME280;8527;49.740;6.604;2023-05-22T19:04:33;99564.31;;;21.05;75.14
16821;BME280;8527;49.740;6.604;2023-05-22T19:09:31;99563.16;;;20.72;75.47
16821;BME280;8527;49.740;6.604;2023-05-22T19:14:30;99580.31;;;20.53;76.10
16821;BME280;8527;49.740;6.604;2023-05-22T19:19:37;99585.81;;;20.59;75.79
16821;BME280;8527;49.740;6.604;2023-05-22T19:24:40;99601.75;;;20.60;75.42
16821;BME280;8527;49.740;6.604;2023-05-22T19:29:38;99611.50;;;20.61;74.96
16821;BME280;8527;49.740;6.604;2023-05-22T19:34:39;99623.19;;;20.67;74.84
16821;BME280;8527;49.740;6.604;2023-05-22T19:39:40;99628.19;;;20.87;72.74
16821;BME280;8527;49.740;6.604;2023-05-22T19:44:41;99628.19;;;20.87;72.42
16821;BME280;8527;49.740;6.604;2023-05-22T19:49:45;99645.31;;;20.93;71.43
16821;BME280;8527;49.740;6.604;2023-05-22T19:54:50;99632.19;;;20.85;70.73
16821;BME280;8527;49.740;6.604;2023-05-22T19:59:55;99647.06;;;20.75;75.68
16821;BME280;8527;49.740;6.604;2023-05-22T20:05:03;99647.47;;;20.67;74.68
16821;BME280;8527;49.740;6.604;2023-05-22T20:10:05;99654.88;;;20.48;73.71
16821;BME280;8527;49.740;6.604;2023-05-22T20:15:05;99655.31;;;20.57;73.21
16821;BME280;8527;49.740;6.604;2023-05-22T20:20:08;99667.06;;;20.38;74.57
16821;BME280;8527;49.740;6.604;2023-05-22T20:25:08;99671.84;;;20.48;75.01
16821;BME280;8527;49.740;6.604;2023-05-22T20:30:08;99678.78;;;20.32;74.60
16821;BME280;8527;49.740;6.604;2023-05-22T20:35:13;99685.09;;;20.38;74.14
16821;BME280;8527;49.740;6.604;2023-05-22T20:40:13;99690.38;;;20.45;76.99
16821;BME280;8527;49.740;6.604;2023-05-22T20:45:12;99694.38;;;20.18;75.58
16821;BME280;8527;49.740;6.604;2023-05-22T20:50:14;99696.47;;;20.16;76.94
16821;BME280;8527;49.740;6.604;2023-05-22T20:55:13;99706.66;;;19.72;77.81
16821;BME280;8527;49.740;6.604;2023-05-22T21:00:12;99708.84;;;19.93;78.41
16821;BME280;8527;49.740;6.604;2023-05-22T21:05:16;99700.16;;;19.91;79.14
16821;BME280;8527;49.740;6.604;2023-05-22T21:10:15;99715.91;;;19.76;80.26
16821;BME280;8527;49.740;6.604;2023-05-22T21:15:15;99710.53;;;19.76;79.62
16821;BME280;8527;49.740;6.604;2023-05-22T21:20:19;99703.00;;;19.54;81.05
16821;BME280;8527;49.740;6.604;2023-05-22T21:25:20;99713.06;;;19.59;80.60
16821;BME280;8527;49.740;6.604;2023-05-22T21:30:22;99722.78;;;19.29;81.13
16821;BME280;8527;49.740;6.604;2023-05-22T21:35:23;99731.47;;;19.12;81.66
16821;BME280;8527;49.740;6.604;2023-05-22T21:40:23;99750.75;;;19.09;81.53
16821;BME280;8527;49.740;6.604;2023-05-22T21:45:22;99743.63;;;18.96;82.84
16821;BME280;8527;49.740;6.604;2023-05-22T21:50:22;99758.09;;;18.95;82.09
16821;BME280;8527;49.740;6.604;2023-05-22T21:55:21;99766.41;;;18.94;82.26
16821;BME280;8527;49.740;6.604;2023-05-22T22:00:20;99764.34;;;18.70;82.17
16821;BME280;8527;49.740;6.604;2023-05-22T22:05:19;99770.94;;;18.75;82.67
16821;BME280;8527;49.740;6.604;2023-05-22T22:10:21;99766.91;;;18.65;83.31
16821;BME280;8527;49.740;6.604;2023-05-22T22:15:22;99776.94;;;18.51;82.54
16821;BME280;8527;49.740;6.604;2023-05-22T22:20:21;99772.31;;;18.40;82.99
16821;BME280;8527;49.740;6.604;2023-05-22T22:25:24;99783.81;;;18.22;83.04
16821;BME280;8527;49.740;6.604;2023-05-22T22:30:23;99773.22;;;18.27;84.29
16821;BME280;8527;49.740;6.604;2023-05-22T22:35:21;99766.91;;;18.14;84.65
16821;BME280;8527;49.740;6.604;2023-05-22T22:40:19;99760.41;;;18.04;83.19
16821;BME280;8527;49.740;6.604;2023-05-22T22:45:21;99761.06;;;17.92;84.15
16821;BME280;8527;49.740;6.604;2023-05-22T22:50:20;99765.16;;;17.95;84.90
16821;BME280;8527;49.740;6.604;2023-05-22T22:55:18;99765.63;;;17.85;85.11
16821;BME280;8527;49.740;6.604;2023-05-22T23:00:17;99773.78;;;17.71;85.79
16821;BME280;8527;49.740;6.604;2023-05-22T23:05:18;99783.75;;;17.57;84.52
16821;BME280;8527;49.740;6.604;2023-05-22T23:10:17;99783.41;;;17.47;85.18
16821;BME280;8527;49.740;6.604;2023-05-22T23:15:19;99789.59;;;17.41;85.39
16821;BME280;8527;49.740;6.604;2023-05-22T23:20:25;99787.53;;;17.36;86.24
16821;BME280;8527;49.740;6.604;2023-05-22T23:25:24;99788.63;;;17.28;85.84
16821;BME280;8527;49.740;6.604;2023-05-22T23:30:24;99782.44;;;17.28;85.96
16821;BME280;8527;49.740;6.604;2023-05-22T23:35:28;99778.78;;;17.09;86.47
16821;BME280;8527;49.740;6.604;2023-05-22T23:40:33;99780.84;;;17.00;87.70
16821;BME280;8527;49.740;6.604;2023-05-22T23:45:34;99789.09;;;16.98;88.94
16821;BME280;8527;49.740;6.604;2023-05-22T23:50:35;99786.66;;;16.83;91.09
16821;BME280;8527;49.740;6.604;2023-05-22T23:55:37;99797.16;;;16.85;89.99
